»·PEaware :: SKY96 KHLN-KLVM

SKY96 :: KHLN-KLVM

FLIGHT INFORMATION

Flight Status: Arrived
Operator:
Sky High Charters
More flights by this operator :: More flights under this callsign
Pilot: Russell S. (24346)
Aircraft: BEECH AIRCRAFT DEBONAIR BONANZA
(BE33)
More flights by this aircraft type
Origin: KHLN Helena Regl
United States
Destination: KLVM Mission
United States
More flights between these airports :: More routes between these airports
Route: HLN4 HLN V2 LVM
File this flight plan on PilotEdge
Remarks: Sky high scenario 7 leg 1
Altitude:
(Current/Filed)
11,000ft
Speed:
(Current/Filed)
160kts
Departed: 21-Aug-19 09:53 AM
Arrived: 21-Aug-19 10:54 AM
Distance/Time
Traveled:
84nm/1:01
Distance/Time
To Go:
Arrived

Flight Plot

Page will automatically refresh every two minutes.

Flight plan parsing failed; only flown route is shown


Map Options




Map Legend


Flown Route
Filed Route
Departure Airport
Arrival Airport
Navaid (VOR, NDB)
Fix

Horizontal Profiles

Position Reports

Time Latitude Longitude Heading Altitude Ground
Speed
21-Aug-19 09:26 46.602982 -111.987828 266 3865ft 0kts
21-Aug-19 09:27 46.602982 -111.987828 266 3865ft 0kts
21-Aug-19 09:28 46.602982 -111.987828 266 3865ft 0kts
21-Aug-19 09:29 46.602982 -111.987828 266 3865ft 0kts
21-Aug-19 09:30 46.602982 -111.987828 266 3865ft 0kts
21-Aug-19 09:31 46.602982 -111.987828 266 3865ft 0kts
21-Aug-19 09:32 46.602982 -111.987828 266 3865ft 0kts
21-Aug-19 09:33 46.602982 -111.987828 266 3865ft 0kts
21-Aug-19 09:34 46.602982 -111.987828 266 3865ft 0kts
21-Aug-19 09:35 46.602982 -111.987828 266 3865ft 0kts
21-Aug-19 09:36 46.602982 -111.987828 266 3865ft 0kts
21-Aug-19 09:37 46.602982 -111.987828 266 3865ft 0kts
21-Aug-19 09:38 46.602982 -111.987828 266 3865ft 0kts
21-Aug-19 09:39 46.602982 -111.987828 266 3865ft 0kts
21-Aug-19 09:40 46.602982 -111.987828 266 3865ft 0kts
21-Aug-19 09:41 46.602982 -111.987828 266 3865ft 0kts
21-Aug-19 09:42 46.603000 -111.987857 349 3865ft 0kts
21-Aug-19 09:43 46.603000 -111.987857 349 3865ft 0kts
21-Aug-19 09:44 46.603397 -111.986817 80 3862ft 7kts
21-Aug-19 09:45 46.603529 -111.983338 86 3858ft 11kts
21-Aug-19 09:46 46.603624 -111.978833 93 3858ft 10kts
21-Aug-19 09:47 46.603236 -111.974252 98 3854ft 13kts
21-Aug-19 09:48 46.602652 -111.968718 101 3849ft 14kts
21-Aug-19 09:49 46.602010 -111.963532 49 3844ft 0kts
21-Aug-19 09:50 46.602010 -111.963532 49 3844ft 0kts
21-Aug-19 09:51 46.602946 -111.963181 314 3840ft 5kts
21-Aug-19 09:52 46.605393 -111.978678 283 4009ft 92kts
21-Aug-19 09:53 46.622510 -112.002238 13 4891ft 109kts
21-Aug-19 09:54 46.652826 -111.990065 12 5800ft 116kts
21-Aug-19 09:55 46.684153 -111.977814 16 6698ft 116kts
21-Aug-19 09:56 46.715144 -111.970501 348 7600ft 114kts
21-Aug-19 09:57 46.743669 -111.985965 334 8487ft 106kts
21-Aug-19 09:58 46.745891 -112.014520 183 9227ft 101kts
21-Aug-19 09:59 46.728514 -111.984911 80 9800ft 111kts
21-Aug-19 10:00 46.707607 -111.964400 182 10319ft 120kts
21-Aug-19 10:01 46.673531 -111.964890 173 10829ft 124kts
21-Aug-19 10:02 46.637609 -111.958974 172 11009ft 141kts
21-Aug-19 10:03 46.602711 -111.934711 126 11003ft 153kts
21-Aug-19 10:04 46.579849 -111.881680 121 11000ft 156kts
21-Aug-19 10:05 46.558401 -111.826566 120 11000ft 157kts
21-Aug-19 10:06 46.536998 -111.770989 120 11000ft 157kts
21-Aug-19 10:07 46.515638 -111.715528 120 11000ft 157kts
21-Aug-19 10:08 46.494219 -111.660007 120 11000ft 157kts
21-Aug-19 10:09 46.472796 -111.604590 120 11000ft 157kts
21-Aug-19 10:10 46.451352 -111.549237 120 11004ft 157kts
21-Aug-19 10:11 46.429905 -111.493972 120 11011ft 157kts
21-Aug-19 10:12 46.408486 -111.438652 120 11022ft 159kts
21-Aug-19 10:13 46.386603 -111.382691 119 11031ft 159kts
21-Aug-19 10:14 46.364576 -111.326607 120 11036ft 160kts
21-Aug-19 10:15 46.342773 -111.270698 120 11036ft 160kts
21-Aug-19 10:16 46.320775 -111.214540 120 11036ft 160kts
21-Aug-19 10:17 46.298761 -111.158381 120 11031ft 160kts
21-Aug-19 10:18 46.276588 -111.102167 120 11031ft 160kts
21-Aug-19 10:19 46.246167 -111.056669 142 11031ft 158kts
21-Aug-19 10:20 46.211640 -111.016928 143 11031ft 158kts
21-Aug-19 10:21 46.177281 -110.977628 143 11031ft 158kts
21-Aug-19 10:22 46.142807 -110.938340 143 11031ft 157kts
21-Aug-19 10:23 46.108528 -110.899345 143 11031ft 157kts
21-Aug-19 10:24 46.074377 -110.860752 141 11032ft 154kts
21-Aug-19 10:25 46.040816 -110.822615 142 11036ft 153kts
21-Aug-19 10:26 46.007406 -110.784790 142 11041ft 153kts
21-Aug-19 10:27 45.974010 -110.747044 142 11045ft 153kts
21-Aug-19 10:28 45.940640 -110.709398 142 11042ft 153kts
21-Aug-19 10:29 45.907171 -110.671748 142 11044ft 153kts
21-Aug-19 10:30 45.873661 -110.633984 142 11050ft 153kts
21-Aug-19 10:31 45.840144 -110.596243 141 11051ft 153kts
21-Aug-19 10:32 45.806580 -110.558540 142 11050ft 153kts
21-Aug-19 10:33 45.772955 -110.520921 142 11050ft 153kts
21-Aug-19 10:34 45.739354 -110.483428 142 11050ft 153kts
21-Aug-19 10:35 45.709610 -110.442257 98 10864ft 151kts
21-Aug-19 10:36 45.722548 -110.385575 66 10081ft 152kts
21-Aug-19 10:37 45.741199 -110.331898 66 9325ft 146kts
21-Aug-19 10:38 45.761525 -110.273583 65 8670ft 171kts
21-Aug-19 10:39 45.781917 -110.215090 66 8598ft 157kts
21-Aug-19 10:40 45.800281 -110.159641 84 8561ft 153kts
21-Aug-19 10:41 45.790564 -110.097582 105 8087ft 164kts
21-Aug-19 10:42 45.815505 -110.076578 300 8001ft 161kts
21-Aug-19 10:43 45.806522 -110.135273 249 8000ft 155kts
21-Aug-19 10:44 45.789831 -110.191160 240 7977ft 156kts
21-Aug-19 10:45 45.772150 -110.241759 239 7170ft 133kts
21-Aug-19 10:46 45.757307 -110.284371 240 6894ft 103kts
21-Aug-19 10:47 45.744096 -110.321679 240 6563ft 118kts
21-Aug-19 10:48 45.728353 -110.366846 240 5778ft 131kts
21-Aug-19 10:49 45.718455 -110.414177 281 5475ft 123kts
21-Aug-19 10:50 45.709456 -110.458065 234 5476ft 120kts
21-Aug-19 10:51 45.687308 -110.484441 134 5514ft 107kts
21-Aug-19 10:52 45.695261 -110.451199 61 4653ft 52kts
21-Aug-19 10:53 45.697065 -110.447588 231 4653ft 18kts
21-Aug-19 10:54 45.697088 -110.452562 240 4651ft 14kts

Navigation Log

Ident Type
Flight plan parsing failed, navigation log unavailable